createdAt,value
2023-01-30T00:01:07.676Z,0.90
2023-01-30T00:03:34.877Z,1.10
2023-01-30T00:06:02.302Z,1.10
2023-01-30T00:08:29.419Z,1.73
2023-01-30T00:10:56.536Z,0.80
2023-01-30T00:13:24.026Z,1.25
2023-01-30T00:15:51.275Z,1.00
2023-01-30T00:18:18.379Z,1.13
2023-01-30T00:20:45.568Z,1.00
2023-01-30T00:23:13.219Z,0.70
2023-01-30T00:25:40.589Z,1.20
2023-01-30T00:28:07.901Z,1.10
2023-01-30T00:30:35.221Z,1.17
2023-01-30T00:33:02.548Z,0.98
2023-01-30T00:35:29.994Z,0.90
2023-01-30T00:38:01.117Z,0.73
2023-01-30T00:40:30.094Z,1.30
2023-01-30T00:43:15.582Z,0.90
2023-01-30T00:46:04.014Z,0.80
2023-01-30T00:48:32.126Z,1.00
2023-01-30T00:50:59.444Z,0.93
2023-01-30T00:53:27.865Z,1.10
2023-01-30T00:55:55.784Z,1.17
2023-01-30T00:58:24.701Z,1.43
2023-01-30T01:00:52.783Z,0.60
2023-01-30T01:03:20.760Z,0.90
2023-01-30T01:05:48.483Z,0.70
2023-01-30T01:08:15.925Z,1.13
2023-01-30T01:10:43.514Z,0.50
2023-01-30T01:13:10.913Z,0.93
2023-01-30T01:15:38.420Z,0.60
2023-01-30T01:18:06.224Z,0.60
2023-01-30T01:20:33.460Z,0.70
2023-01-30T01:23:00.728Z,0.50
2023-01-30T01:25:28.448Z,0.67
2023-01-30T01:27:56.009Z,0.93
2023-01-30T01:30:23.319Z,0.83
2023-01-30T01:32:50.536Z,0.73
2023-01-30T01:35:19.930Z,0.60
2023-01-30T01:37:47.638Z,0.50
2023-01-30T01:40:38.820Z,0.80
2023-01-30T01:43:23.872Z,0.80
2023-01-30T01:46:02.652Z,0.70
2023-01-30T01:48:35.119Z,0.80
2023-01-30T01:51:17.007Z,0.90
2023-01-30T01:54:08.525Z,0.80
2023-01-30T01:56:38.088Z,1.07
2023-01-30T01:59:16.201Z,0.53
2023-01-30T02:01:46.253Z,0.90
2023-01-30T02:04:14.646Z,0.70
2023-01-30T02:06:44.859Z,1.10
2023-01-30T02:09:12.496Z,0.60
2023-01-30T02:11:52.843Z,0.83
2023-01-30T02:14:21.715Z,1.20
2023-01-30T02:16:51.213Z,0.80
2023-01-30T02:19:32.414Z,0.80
2023-01-30T02:22:33.557Z,0.70
2023-01-30T02:25:41.596Z,1.53
2023-01-30T02:28:27.130Z,1.40
2023-01-30T02:31:26.939Z,1.00
2023-01-30T02:34:26.475Z,0.90
2023-01-30T02:37:21.622Z,1.37
2023-01-30T02:40:00.705Z,1.27
2023-01-30T02:42:45.970Z,1.10
2023-01-30T02:45:26.855Z,0.90
2023-01-30T02:47:58.246Z,1.03
2023-01-30T02:50:50.882Z,0.90
2023-01-30T02:53:18.273Z,2.20
2023-01-30T02:55:45.391Z,1.00
2023-01-30T02:58:13.941Z,1.30
2023-01-30T03:01:08.360Z,1.20
2023-01-30T03:03:50.849Z,1.53
2023-01-30T03:06:17.982Z,1.17
2023-01-30T03:09:10.955Z,1.27
2023-01-30T03:11:48.136Z,1.40
2023-01-30T03:14:25.908Z,1.23
2023-01-30T03:16:57.169Z,1.00
2023-01-30T03:19:24.769Z,1.23
2023-01-30T03:21:51.845Z,1.10
2023-01-30T03:24:19.610Z,0.90
2023-01-30T03:26:56.746Z,1.10
2023-01-30T03:29:24.017Z,1.00
2023-01-30T03:31:51.337Z,0.90
2023-01-30T03:34:19.211Z,0.93
2023-01-30T03:36:48.163Z,1.70
2023-01-30T03:39:17.427Z,1.73
2023-01-30T03:41:46.273Z,1.10
2023-01-30T03:44:13.402Z,1.30
2023-01-30T03:46:42.727Z,1.30
2023-01-30T03:49:09.901Z,1.47
2023-01-30T03:51:37.007Z,1.10
2023-01-30T03:54:04.370Z,1.20
2023-01-30T03:56:32.178Z,1.17
2023-01-30T03:58:59.955Z,1.00
2023-01-30T04:01:35.991Z,1.10
2023-01-30T04:04:03.823Z,1.10
2023-01-30T04:06:31.119Z,1.20
2023-01-30T04:08:58.538Z,1.20
2023-01-30T04:11:38.347Z,1.10
2023-01-30T04:14:05.636Z,0.93
2023-01-30T04:16:39.365Z,1.07
2023-01-30T04:19:33.916Z,1.08
2023-01-30T04:22:02.075Z,1.23
2023-01-30T04:24:30.413Z,0.90
2023-01-30T04:26:58.958Z,1.00
2023-01-30T04:29:26.390Z,1.00
2023-01-30T04:31:55.224Z,1.20
2023-01-30T04:34:26.019Z,1.07
2023-01-30T04:36:53.480Z,0.83
2023-01-30T04:39:23.828Z,1.20
2023-01-30T04:41:52.313Z,1.00
2023-01-30T04:44:20.082Z,1.20
2023-01-30T04:46:52.489Z,0.90
2023-01-30T04:49:20.719Z,1.30
2023-01-30T04:51:49.293Z,1.60
2023-01-30T04:54:16.492Z,1.10
2023-01-30T04:56:43.603Z,1.27
2023-01-30T04:59:10.848Z,1.50
2023-01-30T05:01:42.735Z,1.13
2023-01-30T05:04:10.500Z,1.20
2023-01-30T05:06:38.098Z,1.48
2023-01-30T05:09:05.447Z,1.10
2023-01-30T05:11:34.103Z,1.43
2023-01-30T05:14:01.588Z,2.00
2023-01-30T05:16:29.267Z,1.10
2023-01-30T05:18:56.352Z,1.90
2023-01-30T05:21:28.193Z,1.10
2023-01-30T05:23:56.445Z,1.23
2023-01-30T05:26:24.735Z,1.20
2023-01-30T05:28:57.071Z,1.23
2023-01-30T05:31:24.638Z,1.50
2023-01-30T05:33:52.931Z,2.23
2023-01-30T05:36:22.689Z,2.07
2023-01-30T05:38:50.150Z,1.10
2023-01-30T05:41:18.259Z,1.30
2023-01-30T05:43:50.652Z,1.23
2023-01-30T05:46:18.413Z,1.03
2023-01-30T05:48:45.752Z,0.97
2023-01-30T05:51:24.583Z,1.17
2023-01-30T05:53:52.491Z,1.35
2023-01-30T05:56:20.656Z,1.07
2023-01-30T05:58:53.004Z,1.35
2023-01-30T06:01:20.841Z,2.30
2023-01-30T06:03:47.964Z,1.30
2023-01-30T06:06:15.440Z,2.10
2023-01-30T06:08:42.608Z,1.53
2023-01-30T06:11:12.416Z,1.70
2023-01-30T06:13:39.902Z,1.80
2023-01-30T06:16:08.658Z,1.70
2023-01-30T06:18:36.447Z,1.87
2023-01-30T06:21:04.046Z,1.30
2023-01-30T06:23:31.806Z,1.33
2023-01-30T06:25:59.282Z,2.50
2023-01-30T06:28:27.400Z,1.73
2023-01-30T06:30:54.855Z,1.85
2023-01-30T06:33:22.240Z,1.83
2023-01-30T06:35:50.851Z,2.30
2023-01-30T06:38:20.451Z,2.07
2023-01-30T06:40:50.080Z,1.73
2023-01-30T06:43:17.792Z,1.85
2023-01-30T06:45:44.973Z,1.73
2023-01-30T06:48:12.095Z,2.07
2023-01-30T06:50:39.398Z,2.10
2023-01-30T06:53:07.986Z,1.97
2023-01-30T06:55:36.860Z,1.87
2023-01-30T06:58:13.277Z,1.58
2023-01-30T07:00:42.512Z,1.80
2023-01-30T07:03:15.303Z,1.50
2023-01-30T07:05:44.267Z,1.63
2023-01-30T07:08:12.386Z,2.45
2023-01-30T07:10:40.899Z,1.73
2023-01-30T07:13:08.838Z,1.53
2023-01-30T07:15:36.308Z,2.10
2023-01-30T07:18:03.958Z,2.07
2023-01-30T07:20:31.591Z,1.63
2023-01-30T07:22:59.071Z,1.60
2023-01-30T07:25:27.421Z,1.73
2023-01-30T07:27:59.957Z,1.85
2023-01-30T07:30:30.968Z,1.50
2023-01-30T07:33:00.051Z,1.55
2023-01-30T07:35:29.549Z,1.47
2023-01-30T07:37:57.295Z,2.10
2023-01-30T07:40:26.227Z,1.53
2023-01-30T07:43:02.358Z,1.63
2023-01-30T07:45:36.943Z,1.67
2023-01-30T07:48:04.408Z,1.60
2023-01-30T07:50:31.736Z,1.30
2023-01-30T07:53:02.658Z,1.35
2023-01-30T07:55:29.816Z,1.30
2023-01-30T07:57:57.444Z,1.45
2023-01-30T08:00:24.975Z,1.35
2023-01-30T08:02:52.087Z,1.67
2023-01-30T08:05:20.165Z,1.15
2023-01-30T08:07:50.049Z,1.37
2023-01-30T08:10:18.064Z,1.75
2023-01-30T08:12:45.696Z,1.40
2023-01-30T08:15:12.903Z,2.10
2023-01-30T08:17:40.252Z,1.40
2023-01-30T08:20:08.092Z,1.50
2023-01-30T08:22:35.603Z,1.20
2023-01-30T08:25:02.908Z,1.40
2023-01-30T08:27:29.965Z,1.30
2023-01-30T08:29:57.783Z,1.70
2023-01-30T08:32:24.999Z,1.17
2023-01-30T08:34:52.281Z,1.63
2023-01-30T08:37:19.519Z,2.05
2023-01-30T08:39:46.944Z,1.30
2023-01-30T08:42:14.304Z,1.57
2023-01-30T08:44:41.462Z,1.13
2023-01-30T08:47:08.775Z,1.30
2023-01-30T08:49:36.154Z,1.53
2023-01-30T08:52:03.573Z,1.87
2023-01-30T08:54:33.302Z,1.47
2023-01-30T08:57:00.533Z,1.90
2023-01-30T08:59:27.681Z,1.47
2023-01-30T09:01:55.301Z,2.20
2023-01-30T09:04:25.105Z,1.40
2023-01-30T09:06:52.980Z,1.53
2023-01-30T09:09:20.081Z,1.40
2023-01-30T09:11:50.080Z,1.67
2023-01-30T09:14:19.949Z,1.60
2023-01-30T09:16:56.849Z,1.40
2023-01-30T09:19:26.022Z,1.70
2023-01-30T09:21:54.218Z,1.40
2023-01-30T09:24:26.844Z,1.03
2023-01-30T09:26:59.291Z,1.73
2023-01-30T09:29:27.482Z,1.67
2023-01-30T09:31:56.768Z,1.47
2023-01-30T09:34:33.967Z,1.57
2023-01-30T09:37:05.023Z,1.60
2023-01-30T09:39:33.486Z,1.10
2023-01-30T09:42:28.484Z,1.93
2023-01-30T09:45:02.286Z,1.40
2023-01-30T09:48:23.519Z,1.77
2023-01-30T09:51:13.968Z,1.80
2023-01-30T09:53:50.735Z,1.80
2023-01-30T09:56:18.211Z,1.70
2023-01-30T09:58:51.574Z,1.70
2023-01-30T10:01:33.405Z,1.88
2023-01-30T10:04:05.824Z,1.10
2023-01-30T10:06:40.518Z,1.63
2023-01-30T10:09:10.654Z,1.92
2023-01-30T10:12:04.237Z,1.67
2023-01-30T10:14:51.114Z,1.33
2023-01-30T10:17:37.141Z,1.47
2023-01-30T10:20:18.677Z,1.40
2023-01-30T10:23:11.912Z,1.58
2023-01-30T10:25:48.414Z,0.95
2023-01-30T10:28:52.436Z,1.40
2023-01-30T10:31:34.041Z,1.50
2023-01-30T10:34:10.251Z,1.50
2023-01-30T10:36:41.644Z,1.30
2023-01-30T10:39:40.892Z,1.45
2023-01-30T10:42:19.821Z,1.33
2023-01-30T10:44:47.943Z,1.35
2023-01-30T10:48:18.739Z,1.33
2023-01-30T10:50:52.567Z,1.53
2023-01-30T10:53:40.855Z,1.42
2023-01-30T10:56:30.457Z,1.58
2023-01-30T10:59:23.330Z,1.65
2023-01-30T11:02:01.353Z,1.63
2023-01-30T11:04:36.532Z,0.98
2023-01-30T11:07:04.265Z,1.70
2023-01-30T11:09:49.112Z,1.38
2023-01-30T11:12:16.297Z,1.23
2023-01-30T11:14:53.911Z,1.33
2023-01-30T11:17:28.990Z,1.17
2023-01-30T11:19:57.905Z,1.38
2023-01-30T11:22:27.205Z,0.85
2023-01-30T11:25:04.141Z,1.17
2023-01-30T11:27:33.865Z,1.42
2023-01-30T11:30:20.100Z,0.90
2023-01-30T11:32:49.647Z,1.50
2023-01-30T11:35:30.033Z,1.50
2023-01-30T11:38:20.085Z,1.20
2023-01-30T11:40:47.487Z,1.60
2023-01-30T11:43:15.239Z,1.20
2023-01-30T11:45:49.673Z,1.77
2023-01-30T11:48:33.158Z,1.40
2023-01-30T11:51:12.039Z,1.35
2023-01-30T11:53:45.224Z,1.20
2023-01-30T11:56:22.901Z,1.70
2023-01-30T11:58:59.050Z,1.20
2023-01-30T12:01:29.480Z,1.35
2023-01-30T12:03:58.699Z,1.48
2023-01-30T12:06:34.026Z,1.35
2023-01-30T12:09:01.431Z,1.40
2023-01-30T12:11:36.854Z,1.25
2023-01-30T12:14:40.338Z,1.60
2023-01-30T12:17:42.155Z,1.83
2023-01-30T12:20:23.768Z,1.88
2023-01-30T12:23:18.959Z,1.23
2023-01-30T12:26:17.228Z,1.83
2023-01-30T12:29:15.743Z,2.20
2023-01-30T12:31:58.949Z,1.70
2023-01-30T12:34:27.595Z,1.77
2023-01-30T12:37:05.084Z,1.25
2023-01-30T12:40:00.757Z,1.30
2023-01-30T12:42:56.179Z,1.27
2023-01-30T12:45:25.172Z,1.88
2023-01-30T12:48:07.291Z,1.73
2023-01-30T12:51:09.861Z,1.50
2023-01-30T12:53:37.213Z,1.05
2023-01-30T12:56:10.171Z,1.98
2023-01-30T12:58:47.100Z,1.20
2023-01-30T13:01:39.020Z,1.60
2023-01-30T13:04:15.540Z,0.88
2023-01-30T13:07:07.852Z,1.27
2023-01-30T13:10:01.544Z,1.17
2023-01-30T13:13:05.291Z,1.10
2023-01-30T13:16:08.233Z,1.80
2023-01-30T13:19:00.475Z,1.58
2023-01-30T13:21:38.522Z,1.40
2023-01-30T13:24:32.276Z,1.67
2023-01-30T13:27:04.027Z,1.10
2023-01-30T13:29:39.123Z,1.25
2023-01-30T13:32:16.596Z,1.13
2023-01-30T13:34:50.567Z,1.05
2023-01-30T13:37:22.637Z,1.65
2023-01-30T13:40:05.714Z,1.60
2023-01-30T13:42:51.809Z,1.73
2023-01-30T13:45:23.373Z,0.90
2023-01-30T13:47:58.721Z,1.33
2023-01-30T13:50:42.330Z,1.33
2023-01-30T13:53:30.698Z,0.80
2023-01-30T13:56:06.646Z,2.00
2023-01-30T13:58:55.928Z,1.02
2023-01-30T14:01:24.687Z,1.50
2023-01-30T14:03:52.141Z,1.40
2023-01-30T14:06:40.565Z,1.95
2023-01-30T14:09:23.211Z,1.00
2023-01-30T14:12:02.063Z,0.90
2023-01-30T14:14:40.043Z,1.27
2023-01-30T14:17:17.555Z,1.10
2023-01-30T14:19:57.756Z,0.80
2023-01-30T14:22:49.379Z,0.98
2023-01-30T14:25:24.492Z,1.20
2023-01-30T14:28:00.809Z,1.08
2023-01-30T14:30:49.835Z,1.73
2023-01-30T14:33:23.338Z,1.85
2023-01-30T14:36:03.843Z,0.90
2023-01-30T14:38:35.247Z,1.58
2023-01-30T14:41:02.638Z,0.77
2023-01-30T14:43:37.977Z,1.13
2023-01-30T14:46:20.453Z,0.95
2023-01-30T14:48:50.113Z,0.82
2023-01-30T14:51:24.297Z,0.80
2023-01-30T14:53:59.040Z,1.40
2023-01-30T14:57:00.349Z,0.88
2023-01-30T14:59:45.974Z,0.50
2023-01-30T15:02:13.160Z,1.52
2023-01-30T15:04:52.774Z,0.77
2023-01-30T15:07:50.097Z,1.10
2023-01-30T15:10:18.125Z,1.15
2023-01-30T15:13:00.884Z,0.50
2023-01-30T15:15:52.784Z,0.70
2023-01-30T15:18:29.828Z,0.75
2023-01-30T15:21:03.532Z,1.23
2023-01-30T15:23:37.152Z,1.10
2023-01-30T15:26:56.155Z,0.60
2023-01-30T15:29:54.621Z,0.82
2023-01-30T15:32:24.573Z,0.88
2023-01-30T15:35:21.552Z,0.82
2023-01-30T15:37:57.505Z,1.05
2023-01-30T15:40:30.244Z,0.73
2023-01-30T15:43:26.974Z,0.80
2023-01-30T15:46:06.422Z,0.68
2023-01-30T15:48:49.548Z,0.80
2023-01-30T15:51:22.361Z,0.50
2023-01-30T15:53:49.640Z,1.23
2023-01-30T15:56:24.639Z,0.57
2023-01-30T15:58:53.013Z,0.68
2023-01-30T16:01:22.573Z,0.70
2023-01-30T16:03:51.094Z,0.80
2023-01-30T16:06:34.999Z,0.80
2023-01-30T16:09:06.753Z,0.70
2023-01-30T16:11:42.403Z,1.00
2023-01-30T16:14:18.149Z,3.80
2023-01-30T16:16:56.341Z,7.72
2023-01-30T16:19:29.796Z,3.55
2023-01-30T16:22:05.885Z,3.00
2023-01-30T16:24:36.608Z,2.88
2023-01-30T16:27:07.327Z,4.07
2023-01-30T16:29:53.232Z,3.05
2023-01-30T16:32:33.097Z,3.45
2023-01-30T16:35:27.222Z,2.20
2023-01-30T16:37:57.248Z,2.95
2023-01-30T16:40:43.530Z,1.83
2023-01-30T16:43:24.171Z,2.10
2023-01-30T16:45:55.080Z,1.40
2023-01-30T16:48:37.300Z,1.40
2023-01-30T16:51:23.672Z,1.20
2023-01-30T16:54:01.839Z,1.65
2023-01-30T16:56:31.951Z,1.65
2023-01-30T16:59:02.823Z,1.60
2023-01-30T17:01:39.572Z,1.23
2023-01-30T17:04:16.348Z,1.30
2023-01-30T17:06:43.915Z,1.23
2023-01-30T17:09:46.181Z,1.40
2023-01-30T17:12:37.338Z,1.58
2023-01-30T17:15:12.240Z,1.08
2023-01-30T17:17:43.617Z,1.40
2023-01-30T17:20:12.686Z,1.00
2023-01-30T17:22:43.696Z,1.40
2023-01-30T17:25:44.146Z,1.98
2023-01-30T17:28:18.661Z,2.00
2023-01-30T17:30:46.014Z,2.80
2023-01-30T17:33:13.392Z,2.75
2023-01-30T17:35:40.831Z,1.48
2023-01-30T17:38:09.492Z,3.60
2023-01-30T17:40:38.353Z,2.80
2023-01-30T17:43:05.851Z,1.77
2023-01-30T17:45:33.495Z,2.13
2023-01-30T17:48:00.804Z,1.55
2023-01-30T17:50:28.949Z,1.40
2023-01-30T17:52:56.317Z,1.58
2023-01-30T17:55:24.089Z,1.38
2023-01-30T17:57:51.385Z,1.38
2023-01-30T18:00:21.105Z,1.88
2023-01-30T18:02:48.818Z,2.42
2023-01-30T18:05:16.336Z,1.92
2023-01-30T18:07:44.668Z,2.40
2023-01-30T18:10:19.187Z,2.20
2023-01-30T18:12:47.344Z,2.17
2023-01-30T18:15:16.603Z,1.67
2023-01-30T18:17:47.758Z,2.08
2023-01-30T18:20:19.019Z,1.52
2023-01-30T18:22:47.224Z,2.20
2023-01-30T18:25:15.959Z,1.23
2023-01-30T18:27:45.036Z,1.58
2023-01-30T18:30:16.593Z,1.20
2023-01-30T18:32:52.548Z,2.10
2023-01-30T18:35:22.314Z,2.08
2023-01-30T18:37:50.260Z,2.22
2023-01-30T18:40:19.062Z,1.70
2023-01-30T18:42:48.150Z,1.60
2023-01-30T18:45:16.242Z,2.40
2023-01-30T18:47:43.400Z,2.15
2023-01-30T18:50:11.192Z,2.40
2023-01-30T18:52:38.385Z,3.15
2023-01-30T18:55:06.148Z,4.20
2023-01-30T18:57:33.520Z,3.28
2023-01-30T19:00:00.759Z,3.15
2023-01-30T19:02:28.225Z,2.20
2023-01-30T19:04:55.324Z,2.40
2023-01-30T19:07:23.047Z,2.70
2023-01-30T19:09:50.393Z,1.45
2023-01-30T19:12:36.023Z,1.27
2023-01-30T19:15:03.713Z,1.30
2023-01-30T19:17:31.297Z,1.40
2023-01-30T19:20:01.324Z,1.50
2023-01-30T19:22:28.871Z,1.40
2023-01-30T19:24:56.108Z,1.92
2023-01-30T19:27:23.748Z,1.85
2023-01-30T19:29:53.767Z,1.65
2023-01-30T19:32:21.189Z,3.00
2023-01-30T19:34:50.830Z,1.65
2023-01-30T19:37:18.300Z,1.77
2023-01-30T19:39:46.830Z,1.65
2023-01-30T19:42:16.999Z,1.77
2023-01-30T19:44:44.477Z,1.88
2023-01-30T19:47:13.733Z,2.03
2023-01-30T19:49:43.398Z,1.58
2023-01-30T19:52:10.781Z,1.85
2023-01-30T19:54:38.061Z,2.00
2023-01-30T19:57:05.549Z,3.45
2023-01-30T19:59:33.961Z,1.40
2023-01-30T20:02:01.434Z,1.10
2023-01-30T20:05:27.476Z,1.77
2023-01-30T20:07:54.705Z,1.38
2023-01-30T20:10:22.325Z,1.00
2023-01-30T20:12:49.607Z,0.80
2023-01-30T20:15:17.324Z,1.40
2023-01-30T20:17:44.566Z,1.73
2023-01-30T20:20:12.302Z,1.00
2023-01-30T20:22:40.008Z,1.10
2023-01-30T20:25:08.116Z,1.10
2023-01-30T20:27:35.693Z,2.08
2023-01-30T20:30:04.064Z,1.20
2023-01-30T20:32:31.895Z,1.00
2023-01-30T20:35:01.625Z,1.45
2023-01-30T20:37:29.304Z,0.90
2023-01-30T20:39:57.279Z,1.10
2023-01-30T20:42:24.577Z,1.00
2023-01-30T20:44:51.977Z,1.55
2023-01-30T20:47:19.134Z,1.20
2023-01-30T20:49:47.506Z,1.65
2023-01-30T20:52:15.199Z,1.15
2023-01-30T20:54:42.746Z,2.25
2023-01-30T20:57:10.205Z,2.00
2023-01-30T20:59:37.386Z,1.20
2023-01-30T21:02:04.976Z,1.10
2023-01-30T21:04:32.832Z,1.98
2023-01-30T21:07:00.638Z,1.40
2023-01-30T21:09:28.077Z,1.00
2023-01-30T21:11:56.535Z,1.05
2023-01-30T21:14:26.449Z,0.88
2023-01-30T21:16:55.281Z,1.08
2023-01-30T21:19:25.787Z,1.30
2023-01-30T21:21:55.479Z,5.30
2023-01-30T21:24:26.784Z,1.85
2023-01-30T21:26:54.995Z,1.60
2023-01-30T21:29:25.177Z,1.20
2023-01-30T21:31:52.956Z,1.05
2023-01-30T21:34:20.403Z,0.80
2023-01-30T21:37:22.989Z,1.15
2023-01-30T21:40:09.260Z,1.08
2023-01-30T21:42:59.725Z,0.88
2023-01-30T21:45:27.106Z,0.80
2023-01-30T21:47:54.605Z,1.02
2023-01-30T21:53:36.438Z,1.00
2023-01-30T21:56:04.244Z,1.60
2023-01-30T21:58:32.399Z,0.80
2023-01-30T22:01:08.924Z,0.85
2023-01-30T22:03:36.575Z,1.00
2023-01-30T22:06:10.175Z,1.88
2023-01-30T22:08:41.317Z,1.23
2023-01-30T22:11:20.537Z,1.00
2023-01-30T22:13:48.093Z,1.00
2023-01-30T22:16:20.895Z,1.20
2023-01-30T22:18:55.781Z,1.00
2023-01-30T22:21:27.894Z,1.10
2023-01-30T22:23:55.844Z,0.95
2023-01-30T22:26:25.050Z,1.10
2023-01-30T22:28:56.985Z,0.68
2023-01-30T22:31:28.547Z,0.80
2023-01-30T22:33:59.757Z,0.93
2023-01-30T22:36:30.205Z,1.35
2023-01-30T22:38:57.928Z,0.70
2023-01-30T22:41:32.635Z,0.90
2023-01-30T22:44:01.027Z,0.75
2023-01-30T22:46:36.093Z,0.80
2023-01-30T22:49:07.931Z,0.80
2023-01-30T22:51:43.733Z,0.68
2023-01-30T22:54:16.103Z,0.80
2023-01-30T22:56:46.141Z,0.70
2023-01-30T22:59:14.309Z,0.80
2023-01-30T23:01:49.823Z,0.70
2023-01-30T23:04:22.086Z,0.70
2023-01-30T23:06:51.613Z,0.60
2023-01-30T23:09:22.705Z,0.85
2023-01-30T23:12:15.062Z,0.70
2023-01-30T23:14:43.192Z,0.60
2023-01-30T23:17:31.038Z,0.57
2023-01-30T23:19:58.531Z,0.82
2023-01-30T23:22:25.908Z,0.70
2023-01-30T23:24:53.365Z,0.50
2023-01-30T23:27:21.443Z,0.47
2023-01-30T23:29:48.873Z,0.40
2023-01-30T23:32:24.006Z,0.50
2023-01-30T23:34:51.799Z,0.45
2023-01-30T23:37:19.255Z,0.45
2023-01-30T23:39:46.681Z,0.45
2023-01-30T23:42:14.044Z,0.60
2023-01-30T23:44:46.616Z,0.77
2023-01-30T23:47:14.976Z,0.40
2023-01-30T23:49:48.903Z,0.40
2023-01-30T23:52:16.078Z,0.30
2023-01-30T23:54:43.573Z,0.30
2023-01-30T23:57:17.343Z,0.30
2023-01-30T23:59:52.920Z,0.30
